createdAt,value
2024-01-05T00:00:09.704Z,97134.63
2024-01-05T00:03:12.801Z,97124.50
2024-01-05T00:06:15.761Z,97121.81
2024-01-05T00:09:19.180Z,97110.56
2024-01-05T00:12:22.483Z,97120.41
2024-01-05T00:15:26.955Z,97112.13
2024-01-05T00:18:29.872Z,97106.50
2024-01-05T00:21:32.733Z,97099.31
2024-01-05T00:24:38.233Z,97088.63
2024-01-05T00:27:41.107Z,97088.91
2024-01-05T00:30:45.617Z,97087.53
2024-01-05T00:33:48.867Z,97081.06
2024-01-05T00:36:51.923Z,97089.41
2024-01-05T00:39:54.997Z,97083.59
2024-01-05T00:42:57.857Z,97085.44
2024-01-05T00:46:02.083Z,97090.44
2024-01-05T00:49:04.837Z,97090.47
2024-01-05T00:52:07.882Z,97085.44
2024-01-05T00:55:10.881Z,97090.78
2024-01-05T00:58:13.520Z,97085.97
2024-01-05T01:01:17.751Z,97094.63
2024-01-05T01:04:20.650Z,97104.09
2024-01-05T01:07:23.462Z,97114.25
2024-01-05T01:10:26.074Z,97116.75
2024-01-05T01:13:28.880Z,97109.56
2024-01-05T01:16:33.689Z,97107.94
2024-01-05T01:19:36.430Z,97109.28
2024-01-05T01:22:39.136Z,97097.28
2024-01-05T01:25:42.085Z,97090.84
2024-01-05T01:28:44.746Z,97068.78
2024-01-05T01:31:48.780Z,97079.38
2024-01-05T01:34:51.478Z,97080.72
2024-01-05T01:37:54.169Z,97062.38
2024-01-05T01:40:57.963Z,97059.16
2024-01-05T01:44:01.588Z,97050.16
2024-01-05T01:47:06.410Z,97047.22
2024-01-05T01:50:10.035Z,97046.09
2024-01-05T01:53:14.733Z,97034.63
2024-01-05T01:56:17.598Z,97023.06
2024-01-05T01:59:20.354Z,97019.53
2024-01-05T02:02:25.162Z,97021.31
2024-01-05T02:05:28.015Z,97025.38
2024-01-05T02:08:30.877Z,97013.38
2024-01-05T02:11:33.556Z,97015.09
2024-01-05T02:14:36.370Z,97010.31
2024-01-05T02:17:41.813Z,97011.75
2024-01-05T02:20:47.872Z,97012.59
2024-01-05T02:23:52.405Z,97020.31
2024-01-05T02:26:55.287Z,97006.47
2024-01-05T02:29:58.234Z,97003.75
2024-01-05T02:33:01.332Z,96989.22
2024-01-05T02:36:07.750Z,96980.28
2024-01-05T02:39:21.592Z,96978.19
2024-01-05T02:42:32.223Z,96982.56
2024-01-05T02:45:45.221Z,96983.25
2024-01-05T02:49:04.931Z,96991.97
2024-01-05T02:52:21.342Z,96990.91
2024-01-05T02:55:38.208Z,96981.28
2024-01-05T02:58:43.278Z,96983.06
2024-01-05T03:02:15.003Z,96977.59
2024-01-05T03:05:26.976Z,96973.31
2024-01-05T03:08:35.325Z,96967.13
2024-01-05T03:11:44.909Z,96967.84
2024-01-05T03:14:53.148Z,96964.06
2024-01-05T03:18:01.898Z,96967.75
2024-01-05T03:21:09.081Z,96972.47
2024-01-05T03:24:16.226Z,96958.00
2024-01-05T03:27:25.655Z,96950.38
2024-01-05T03:30:34.923Z,96938.25
2024-01-05T03:33:44.487Z,96939.03
2024-01-05T03:37:07.175Z,96937.75
2024-01-05T03:40:25.371Z,96937.88
2024-01-05T03:43:38.101Z,96932.72
2024-01-05T03:46:51.494Z,96929.69
2024-01-05T03:50:20.583Z,96924.22
2024-01-05T03:53:35.276Z,96920.59
2024-01-05T03:57:00.381Z,96922.41
2024-01-05T04:00:38.252Z,96936.84
2024-01-05T04:03:52.905Z,96937.75
2024-01-05T04:07:19.316Z,96918.84
2024-01-05T04:10:25.427Z,96917.97
2024-01-05T04:13:36.150Z,96905.16
2024-01-05T04:16:55.701Z,96902.50
2024-01-05T04:20:08.859Z,96899.31
2024-01-05T04:23:37.763Z,96903.19
2024-01-05T04:26:45.884Z,96900.06
2024-01-05T04:33:16.439Z,96894.63
2024-01-05T04:36:28.651Z,96888.28
2024-01-05T04:39:49.706Z,96881.44
2024-01-05T04:43:05.473Z,96891.16
2024-01-05T04:46:17.096Z,96888.47
2024-01-05T04:49:30.522Z,96887.56
2024-01-05T04:56:58.437Z,96883.09
2024-01-05T05:00:31.028Z,96881.31
2024-01-05T05:03:36.704Z,96878.25
2024-01-05T05:07:32.054Z,96878.91
2024-01-05T05:11:23.034Z,96887.59
2024-01-05T05:18:30.210Z,96879.81
2024-01-05T05:21:37.622Z,96873.97
2024-01-05T05:24:58.284Z,96879.00
2024-01-05T05:28:19.780Z,96882.19
2024-01-05T05:31:37.368Z,96875.16
2024-01-05T05:34:51.101Z,96874.47
2024-01-05T05:38:16.730Z,96874.91
2024-01-05T05:41:34.835Z,96877.59
2024-01-05T05:44:50.438Z,96885.81
2024-01-05T05:48:02.328Z,96886.09
2024-01-05T05:51:25.095Z,96873.63
2024-01-05T05:54:34.534Z,96874.47
2024-01-05T06:01:23.680Z,96876.13
2024-01-05T06:04:35.852Z,96873.97
2024-01-05T06:07:51.933Z,96873.28
2024-01-05T06:11:24.231Z,96874.00
2024-01-05T06:14:42.296Z,96873.00
2024-01-05T06:18:06.504Z,96869.06
2024-01-05T06:21:19.404Z,96871.88
2024-01-05T06:24:31.023Z,96880.13
2024-01-05T06:27:39.748Z,96885.75
2024-01-05T06:30:48.217Z,96881.59
2024-01-05T06:37:22.951Z,96897.84
2024-01-05T06:40:35.761Z,96893.56
2024-01-05T06:43:45.874Z,96890.81
2024-01-05T06:47:03.614Z,96887.34
2024-01-05T06:50:15.905Z,96898.28
2024-01-05T06:53:20.594Z,96878.28
2024-01-05T06:56:41.096Z,96878.88
2024-01-05T07:00:06.988Z,96887.47
2024-01-05T07:03:28.863Z,96899.00
2024-01-05T07:06:40.112Z,96902.25
2024-01-05T07:09:58.126Z,96913.22
2024-01-05T07:13:08.625Z,96907.19
2024-01-05T07:16:21.974Z,96908.25
2024-01-05T07:19:29.014Z,96903.50
2024-01-05T07:22:36.911Z,96896.56
2024-01-05T07:25:45.901Z,96887.47
2024-01-05T07:29:10.102Z,96886.66
2024-01-05T07:32:44.946Z,96889.47
2024-01-05T07:36:11.070Z,96887.03
2024-01-05T08:01:28.946Z,96902.06
2024-01-05T08:22:17.551Z,96879.72
2024-01-05T08:25:24.154Z,96873.69
2024-01-05T08:28:27.989Z,96880.84
2024-01-05T08:31:31.615Z,96882.94
2024-01-05T08:34:35.205Z,96882.06
2024-01-05T08:37:39.478Z,96876.59
2024-01-05T08:40:45.823Z,96877.63
2024-01-05T08:43:48.762Z,96870.00
2024-01-05T08:46:51.759Z,96874.16
2024-01-05T08:49:55.282Z,96876.16
2024-01-05T08:52:58.383Z,96882.81
2024-01-05T08:56:02.663Z,96874.19
2024-01-05T08:59:06.928Z,96880.81
2024-01-05T09:02:10.378Z,96878.66
2024-01-05T09:05:14.024Z,96874.69
2024-01-05T09:08:17.005Z,96880.63
2024-01-05T09:11:21.507Z,96877.47
2024-01-05T09:14:24.661Z,96888.16
2024-01-05T09:17:27.859Z,96891.63
2024-01-05T09:20:30.978Z,96888.34
2024-01-05T09:23:34.013Z,96889.91
2024-01-05T09:26:38.260Z,96898.53
2024-01-05T09:29:41.556Z,96894.50
2024-01-05T09:32:44.348Z,96899.38
2024-01-05T09:35:47.200Z,96912.13
2024-01-05T09:38:50.219Z,96914.44
2024-01-05T09:41:54.367Z,96918.31
2024-01-05T09:44:57.748Z,96922.56
2024-01-05T09:48:03.547Z,96919.09
2024-01-05T09:51:08.878Z,96915.50
2024-01-05T09:54:12.337Z,96919.00
2024-01-05T09:57:19.094Z,96912.81
2024-01-05T10:00:24.562Z,96907.47
2024-01-05T10:03:28.491Z,96899.94
2024-01-05T10:06:32.545Z,96902.03
2024-01-05T10:09:50.912Z,96892.53
2024-01-05T10:12:55.233Z,96893.50
2024-01-05T10:16:01.023Z,96897.75
2024-01-05T10:19:12.942Z,96903.03
2024-01-05T10:22:16.891Z,96909.16
2024-01-05T10:25:23.225Z,96904.47
2024-01-05T10:28:31.739Z,96919.47
2024-01-05T10:31:34.659Z,96919.34
2024-01-05T10:34:37.816Z,96924.69
2024-01-05T10:37:40.646Z,96910.72
2024-01-05T10:40:43.375Z,96907.94
2024-01-05T10:43:48.997Z,96909.53
2024-01-05T10:46:53.277Z,96903.50
2024-01-05T10:49:58.705Z,96894.34
2024-01-05T10:53:02.755Z,96892.78
2024-01-05T10:56:09.000Z,96890.78
2024-01-05T10:59:13.106Z,96892.97
2024-01-05T11:02:23.313Z,96887.16
2024-01-05T11:05:27.882Z,96885.97
2024-01-05T11:08:44.092Z,96892.00
2024-01-05T11:12:01.710Z,96877.22
2024-01-05T11:15:24.663Z,96870.31
2024-01-05T11:18:57.095Z,96873.00
2024-01-05T11:22:04.728Z,96871.00
2024-01-05T11:25:08.088Z,96876.97
2024-01-05T11:28:34.160Z,96879.34
2024-01-05T11:31:55.078Z,96879.03
2024-01-05T11:34:58.074Z,96865.94
2024-01-05T11:38:00.884Z,96860.28
2024-01-05T11:41:17.466Z,96860.94
2024-01-05T11:44:33.781Z,96863.81
2024-01-05T11:47:42.906Z,96858.50
2024-01-05T11:50:45.895Z,96851.25
2024-01-05T11:53:49.652Z,96843.81
2024-01-05T11:56:56.148Z,96848.72
2024-01-05T11:59:58.937Z,96855.31
2024-01-05T12:03:04.085Z,96845.41
2024-01-05T12:06:11.005Z,96852.97
2024-01-05T12:09:14.241Z,96861.56
2024-01-05T12:12:18.348Z,96859.81
2024-01-05T12:15:21.749Z,96851.59
2024-01-05T12:18:34.590Z,96843.94
2024-01-05T12:21:41.230Z,96843.56
2024-01-05T12:24:46.921Z,96845.56
2024-01-05T12:27:50.114Z,96842.59
2024-01-05T12:30:53.289Z,96839.13
2024-01-05T12:33:58.560Z,96843.69
2024-01-05T12:37:08.596Z,96834.84
2024-01-05T12:40:12.774Z,96835.97
2024-01-05T12:43:17.561Z,96835.34
2024-01-05T12:46:21.411Z,96821.28
2024-01-05T12:49:27.114Z,96817.00
2024-01-05T12:52:37.415Z,96808.34
2024-01-05T12:55:40.298Z,96791.78
2024-01-05T12:58:44.174Z,96793.34
2024-01-05T13:01:46.929Z,96784.41
2024-01-05T13:04:51.095Z,96786.50
2024-01-05T13:07:54.656Z,96783.81
2024-01-05T13:10:57.392Z,96793.00
2024-01-05T13:14:00.204Z,96795.56
2024-01-05T13:17:03.344Z,96799.16
2024-01-05T13:20:10.104Z,96796.16
2024-01-05T13:23:13.686Z,96806.72
2024-01-05T13:26:17.482Z,96802.00
2024-01-05T13:29:20.206Z,96801.69
2024-01-05T13:32:23.152Z,96801.19
2024-01-05T13:35:27.330Z,96802.59
2024-01-05T13:38:30.057Z,96816.97
2024-01-05T13:41:32.780Z,96820.63
2024-01-05T13:44:36.380Z,96830.72
2024-01-05T13:47:39.394Z,96827.09
2024-01-05T13:50:43.619Z,96828.81
2024-01-05T13:53:46.437Z,96828.81
2024-01-05T13:56:49.310Z,96828.91
2024-01-05T13:59:52.086Z,96830.81
2024-01-05T14:02:54.950Z,96832.88
2024-01-05T14:06:04.999Z,96835.41
2024-01-05T14:09:07.926Z,96835.34
2024-01-05T14:12:11.079Z,96839.72
2024-01-05T14:15:15.456Z,96845.22
2024-01-05T14:18:18.426Z,96846.88
2024-01-05T14:21:27.542Z,96850.28
2024-01-05T14:24:30.508Z,96842.13
2024-01-05T14:27:33.270Z,96842.94
2024-01-05T14:30:36.288Z,96857.53
2024-01-05T14:33:39.450Z,96853.44
2024-01-05T14:36:43.832Z,96856.75
2024-01-05T14:39:46.690Z,96861.63
2024-01-05T14:42:49.490Z,96861.63
2024-01-05T14:45:52.345Z,96859.66
2024-01-05T14:48:55.245Z,96851.22
2024-01-05T14:52:01.248Z,96856.25
2024-01-05T14:55:04.657Z,96871.72
2024-01-05T14:58:08.091Z,96866.50
2024-01-05T15:01:11.239Z,96870.56
2024-01-05T15:04:14.460Z,96875.97
2024-01-05T15:07:19.037Z,96866.75
2024-01-05T15:10:21.827Z,96865.56
2024-01-05T15:13:24.597Z,96866.22
2024-01-05T15:16:28.058Z,96873.69
2024-01-05T15:19:31.077Z,96864.34
2024-01-05T15:22:35.250Z,96874.56
2024-01-05T15:25:38.082Z,96866.69
2024-01-05T15:28:41.717Z,96873.06
2024-01-05T15:31:44.586Z,96876.59
2024-01-05T15:34:47.568Z,96868.06
2024-01-05T15:37:51.667Z,96864.88
2024-01-05T15:40:54.397Z,96865.19
2024-01-05T15:43:57.661Z,96858.50
2024-01-05T15:47:00.714Z,96860.28
2024-01-05T15:50:04.349Z,96857.91
2024-01-05T15:53:08.526Z,96854.53
2024-01-05T15:56:11.645Z,96856.59
2024-01-05T15:59:14.723Z,96867.31
2024-01-05T16:02:17.526Z,96868.72
2024-01-05T16:05:20.688Z,96861.97
2024-01-05T16:08:25.311Z,96869.50
2024-01-05T16:11:31.742Z,96862.41
2024-01-05T16:14:34.764Z,96873.19
2024-01-05T16:17:37.806Z,96873.88
2024-01-05T16:20:42.391Z,96872.63
2024-01-05T16:23:46.717Z,96875.56
2024-01-05T16:26:50.419Z,96868.94
2024-01-05T16:29:53.244Z,96865.47
2024-01-05T16:32:56.179Z,96868.03
2024-01-05T16:35:59.104Z,96865.34
2024-01-05T16:39:04.053Z,96882.34
2024-01-05T16:42:07.112Z,96882.47
2024-01-05T16:45:13.055Z,96883.72
2024-01-05T16:48:16.154Z,96886.47
2024-01-05T16:51:19.027Z,96879.75
2024-01-05T16:54:23.346Z,96868.16
2024-01-05T16:57:26.290Z,96873.28
2024-01-05T17:00:29.618Z,96875.91
2024-01-05T17:03:32.984Z,96875.41
2024-01-05T17:06:37.111Z,96887.13
2024-01-05T17:09:42.304Z,96885.53
2024-01-05T17:12:45.310Z,96895.41
2024-01-05T17:15:48.169Z,96890.41
2024-01-05T17:18:53.085Z,96883.94
2024-01-05T17:21:56.205Z,96889.72
2024-01-05T17:25:00.795Z,96883.00
2024-01-05T17:28:05.060Z,96883.06
2024-01-05T17:31:08.098Z,96877.78
2024-01-05T17:34:11.945Z,96888.72
2024-01-05T17:37:17.365Z,96891.56
2024-01-05T17:40:22.938Z,96897.69
2024-01-05T17:43:25.747Z,96894.91
2024-01-05T17:46:28.744Z,96896.81
2024-01-05T17:49:31.699Z,96900.25
2024-01-05T17:52:34.644Z,96906.34
2024-01-05T17:55:38.805Z,96897.50
2024-01-05T17:58:41.692Z,96900.16
2024-01-05T18:01:45.129Z,96903.91
2024-01-05T18:04:48.061Z,96906.72
2024-01-05T18:07:54.194Z,96911.81
2024-01-05T18:10:58.705Z,96917.31
2024-01-05T18:14:01.917Z,96914.91
2024-01-05T18:17:05.168Z,96921.19
2024-01-05T18:20:10.128Z,96926.16
2024-01-05T18:23:16.748Z,96937.09
2024-01-05T18:26:23.122Z,96925.56
2024-01-05T18:29:29.407Z,96924.13
2024-01-05T18:32:33.113Z,96918.81
2024-01-05T18:35:35.982Z,96912.53
2024-01-05T18:38:39.160Z,96916.44
2024-01-05T18:41:43.353Z,96912.03
2024-01-05T18:44:46.267Z,96912.81
2024-01-05T18:47:49.188Z,96910.31
2024-01-05T18:50:52.342Z,96915.72
2024-01-05T18:53:55.177Z,96917.41
2024-01-05T18:57:00.805Z,96910.16
2024-01-05T19:00:03.684Z,96907.19
2024-01-05T19:03:06.857Z,96924.66
2024-01-05T19:06:09.816Z,96927.72
2024-01-05T19:09:12.920Z,96922.75
2024-01-05T19:12:17.308Z,96936.03
2024-01-05T19:15:20.125Z,96938.19
2024-01-05T19:18:23.145Z,96939.31
2024-01-05T19:21:26.132Z,96942.03
2024-01-05T19:24:29.361Z,96945.22
2024-01-05T19:27:33.807Z,96944.09
2024-01-05T19:30:37.131Z,96946.75
2024-01-05T19:33:40.217Z,96955.38
2024-01-05T19:36:46.317Z,96957.94
2024-01-05T19:39:49.701Z,96957.03
2024-01-05T19:42:54.159Z,96969.00
2024-01-05T19:45:57.095Z,96964.72
2024-01-05T19:49:00.999Z,96979.81
2024-01-05T19:52:04.817Z,96975.97
2024-01-05T19:55:08.684Z,96975.47
2024-01-05T19:58:13.509Z,96977.59
2024-01-05T20:01:17.803Z,96976.06
2024-01-05T20:04:20.810Z,96986.72
2024-01-05T20:07:25.676Z,96991.75
2024-01-05T20:10:29.708Z,96985.63
2024-01-05T20:13:33.934Z,96987.25
2024-01-05T20:16:36.934Z,96988.09
2024-01-05T20:19:40.011Z,96992.34
2024-01-05T20:22:42.999Z,96980.25
2024-01-05T20:25:45.737Z,96982.41
2024-01-05T20:28:51.027Z,96976.38
2024-01-05T20:31:55.355Z,96977.38
2024-01-05T20:34:58.640Z,96978.34
2024-01-05T20:38:01.423Z,96977.53
2024-01-05T20:41:05.031Z,96978.09
2024-01-05T20:44:12.746Z,96973.88
2024-01-05T20:47:17.543Z,96974.19
2024-01-05T20:50:20.159Z,96971.47
2024-01-05T20:53:23.173Z,96979.09
2024-01-05T20:56:25.796Z,96975.69
2024-01-05T20:59:29.799Z,96975.94
2024-01-05T21:02:32.583Z,96975.44
2024-01-05T21:05:36.129Z,96981.13
2024-01-05T21:08:38.810Z,96979.28
2024-01-05T21:11:41.415Z,96977.94
2024-01-05T21:14:45.388Z,96981.19
2024-01-05T21:17:49.520Z,96980.34
2024-01-05T21:20:52.201Z,96983.06
2024-01-05T21:23:54.952Z,96981.72
2024-01-05T21:26:57.613Z,96983.94
2024-01-05T21:30:01.644Z,96979.34
2024-01-05T21:33:05.523Z,96987.63
2024-01-05T21:36:12.197Z,96987.59
2024-01-05T21:39:17.637Z,96991.13
2024-01-05T21:42:20.698Z,96991.19
2024-01-05T21:45:24.905Z,96995.38
2024-01-05T21:48:27.776Z,96990.06
2024-01-05T21:51:30.641Z,96985.50
2024-01-05T21:54:33.484Z,96992.38
2024-01-05T21:57:36.507Z,96990.53
2024-01-05T22:00:40.674Z,96992.91
2024-01-05T22:03:43.494Z,96995.09
2024-01-05T22:06:46.498Z,96998.00
2024-01-05T22:09:49.386Z,96989.53
2024-01-05T22:12:54.573Z,96993.19
2024-01-05T22:15:58.914Z,96989.84
2024-01-05T22:19:01.968Z,96987.34
2024-01-05T22:22:04.891Z,96985.50
2024-01-05T22:25:08.596Z,96991.34
2024-01-05T22:28:11.278Z,96997.44
2024-01-05T22:31:15.612Z,96997.25
2024-01-05T22:34:18.365Z,96997.53
2024-01-05T22:37:21.551Z,96996.78
2024-01-05T22:40:26.621Z,97000.50
2024-01-05T22:43:29.337Z,97001.75
2024-01-05T22:46:33.296Z,96994.81
2024-01-05T22:49:40.104Z,96993.50
2024-01-05T22:52:42.807Z,96998.88
2024-01-05T22:55:45.497Z,96998.34
2024-01-05T22:58:48.378Z,96994.94
2024-01-05T23:01:55.824Z,96994.13
2024-01-05T23:04:58.993Z,97001.34
2024-01-05T23:08:01.807Z,96993.94
2024-01-05T23:11:06.211Z,96995.28
2024-01-05T23:14:08.887Z,97002.16
2024-01-05T23:17:12.931Z,96998.97
2024-01-05T23:20:16.333Z,96999.78
2024-01-05T23:23:19.139Z,96990.47
2024-01-05T23:26:21.782Z,96998.72
2024-01-05T23:29:24.981Z,96988.59
2024-01-05T23:32:28.995Z,96989.41
2024-01-05T23:35:31.703Z,96989.59
2024-01-05T23:38:34.374Z,96988.78
2024-01-05T23:41:37.846Z,96983.19
2024-01-05T23:44:40.541Z,96989.59
2024-01-05T23:47:44.533Z,96994.94
2024-01-05T23:50:47.336Z,96986.66
2024-01-05T23:53:49.943Z,96986.94
2024-01-05T23:56:52.552Z,96995.22
2024-01-05T23:59:55.250Z,96993.03
